createdAt,value
2023-07-20T00:05:01.047Z,101102.22
2023-07-20T00:10:24.154Z,101103.34
2023-07-20T00:15:47.149Z,101096.19
2023-07-20T00:21:11.661Z,101103.34
2023-07-20T00:26:34.632Z,101096.81
2023-07-20T00:31:57.795Z,101093.31
2023-07-20T00:37:22.069Z,101090.22
2023-07-20T00:42:45.008Z,101085.44
2023-07-20T00:48:08.978Z,101091.16
2023-07-20T00:53:34.548Z,101086.63
2023-07-20T00:58:58.574Z,101082.09
2023-07-20T01:04:22.332Z,101083.50
2023-07-20T01:09:54.361Z,101083.28
2023-07-20T01:15:17.299Z,101073.66
2023-07-20T01:20:40.328Z,101087.34
2023-07-20T01:26:38.563Z,101089.59
2023-07-20T01:32:04.929Z,101084.25
2023-07-20T01:37:30.834Z,101084.25
2023-07-20T01:42:54.740Z,101074.50
2023-07-20T01:48:19.067Z,101078.19
2023-07-20T01:53:42.016Z,101075.66
2023-07-20T01:59:04.959Z,101082.44
2023-07-20T02:04:29.251Z,101094.13
2023-07-20T02:09:52.409Z,101098.38
2023-07-20T02:15:17.474Z,101090.34
2023-07-20T02:20:42.599Z,101088.22
2023-07-20T02:26:05.570Z,101099.06
2023-07-20T02:31:28.689Z,101093.88
2023-07-20T02:36:53.116Z,101086.50
2023-07-20T02:42:16.207Z,101094.72
2023-07-20T02:47:39.523Z,101091.47
2023-07-20T02:53:04.333Z,101098.75
2023-07-20T02:58:27.468Z,101090.44
2023-07-20T03:03:50.845Z,101100.59
2023-07-20T03:09:16.526Z,101113.75
2023-07-20T03:14:39.548Z,101107.81
2023-07-20T03:20:03.873Z,101106.72
2023-07-20T03:25:29.045Z,101107.22
2023-07-20T03:30:55.644Z,101120.63
2023-07-20T03:36:18.864Z,101115.38
2023-07-20T03:41:44.114Z,101122.59
2023-07-20T03:47:08.007Z,101133.31
2023-07-20T03:52:31.009Z,101133.31
2023-07-20T03:57:55.306Z,101127.09
2023-07-20T04:03:18.926Z,101126.66
2023-07-20T04:08:41.933Z,101132.81
2023-07-20T04:14:06.332Z,101144.47
2023-07-20T04:19:29.243Z,101139.50
2023-07-20T04:24:52.133Z,101138.00
2023-07-20T04:30:20.679Z,101151.09
2023-07-20T04:35:48.883Z,101151.16
2023-07-20T04:41:14.557Z,101147.03
2023-07-20T04:46:44.762Z,101153.66
2023-07-20T04:52:09.285Z,101167.34
2023-07-20T04:57:33.773Z,101172.66
2023-07-20T05:02:58.785Z,101170.28
2023-07-20T05:08:23.221Z,101172.22
2023-07-20T05:13:46.226Z,101167.16
2023-07-20T05:19:10.835Z,101184.22
2023-07-20T05:24:33.776Z,101178.84
2023-07-20T05:29:56.859Z,101183.63
2023-07-20T05:35:21.196Z,101183.81
2023-07-20T05:40:44.527Z,101185.91
2023-07-20T05:46:07.541Z,101199.63
2023-07-20T05:51:33.061Z,101202.53
2023-07-20T05:56:57.130Z,101202.00
2023-07-20T06:02:20.100Z,101194.44
2023-07-20T06:07:44.432Z,101205.03
2023-07-20T06:13:07.914Z,101211.50
2023-07-20T06:18:31.396Z,101220.38
2023-07-20T06:23:55.646Z,101205.13
2023-07-20T06:29:18.916Z,101218.97
2023-07-20T06:34:41.838Z,101221.22
2023-07-20T06:45:33.610Z,101224.44
2023-07-20T06:50:56.552Z,101224.28
2023-07-20T06:56:22.841Z,101230.25
2023-07-20T07:01:47.762Z,101225.03
2023-07-20T07:07:11.272Z,101220.34
2023-07-20T07:12:36.311Z,101235.69
2023-07-20T07:18:00.528Z,101244.22
2023-07-20T07:23:23.686Z,101247.19
2023-07-20T07:28:47.948Z,101246.88
2023-07-20T07:34:10.891Z,101256.22
2023-07-20T07:39:35.652Z,101261.66
2023-07-20T07:45:00.219Z,101266.34
2023-07-20T07:50:23.196Z,101268.63
2023-07-20T07:55:46.253Z,101273.53
2023-07-20T08:01:10.824Z,101276.91
2023-07-20T08:06:33.950Z,101275.09
2023-07-20T08:11:57.020Z,101283.28
2023-07-20T08:17:21.819Z,101291.22
2023-07-20T08:22:47.091Z,101289.84
2023-07-20T08:28:12.323Z,101220.75
2023-07-20T08:33:36.589Z,101299.06
2023-07-20T08:38:59.601Z,101297.34
2023-07-20T08:44:23.800Z,101305.81
2023-07-20T08:49:50.521Z,101298.69
2023-07-20T08:55:14.910Z,101298.09
2023-07-20T09:00:38.291Z,101299.41
2023-07-20T09:06:02.789Z,101293.84
2023-07-20T09:11:26.314Z,101303.19
2023-07-20T09:16:50.994Z,101284.44
2023-07-20T09:22:15.509Z,101298.50
2023-07-20T09:27:39.917Z,101290.25
2023-07-20T09:33:03.056Z,101293.75
2023-07-20T09:38:29.482Z,101293.66
2023-07-20T09:43:52.760Z,101292.16
2023-07-20T09:54:46.955Z,101286.88
2023-07-20T10:05:45.152Z,101269.25
2023-07-20T10:11:10.485Z,101283.59
2023-07-20T10:16:38.382Z,101272.69
2023-07-20T10:22:10.308Z,101271.69
2023-07-20T10:27:34.959Z,101275.78
2023-07-20T10:32:58.055Z,101271.78
2023-07-20T10:38:21.405Z,101275.16
2023-07-20T10:43:46.215Z,101269.94
2023-07-20T10:49:10.959Z,101255.28
2023-07-20T10:54:49.677Z,101253.22
2023-07-20T11:00:16.150Z,101249.50
2023-07-20T11:05:41.622Z,101244.84
2023-07-20T11:11:24.914Z,101229.69
2023-07-20T11:16:51.756Z,101245.88
2023-07-20T11:22:14.834Z,101219.97
2023-07-20T11:27:46.416Z,101223.00
2023-07-20T11:33:11.572Z,101222.19
2023-07-20T11:38:34.631Z,101215.97
2023-07-20T11:44:01.602Z,101218.13
2023-07-20T11:49:26.921Z,101213.28
2023-07-20T11:54:51.935Z,101215.78
2023-07-20T12:00:17.062Z,101210.03
2023-07-20T12:11:07.339Z,101206.03
2023-07-20T12:16:31.119Z,101198.53
2023-07-20T12:22:00.813Z,101195.78
2023-07-20T12:27:23.751Z,101194.94
2023-07-20T12:32:46.685Z,101198.16
2023-07-20T12:38:11.142Z,101198.81
2023-07-20T12:43:34.170Z,101193.88
2023-07-20T12:48:58.044Z,101188.41
2023-07-20T12:54:22.284Z,101181.50
2023-07-20T12:59:45.178Z,101189.69
2023-07-20T13:05:08.456Z,101182.63
2023-07-20T13:10:35.973Z,101180.28
2023-07-20T13:15:59.616Z,101177.91
2023-07-20T13:21:24.028Z,101166.94
2023-07-20T13:26:49.483Z,101164.03
2023-07-20T13:32:12.427Z,101183.94
2023-07-20T13:37:35.407Z,101172.63
2023-07-20T13:48:25.114Z,101166.72
2023-07-20T13:53:52.379Z,101160.31
2023-07-20T13:59:16.998Z,101159.38
2023-07-20T14:04:40.129Z,101146.53
2023-07-20T14:15:30.414Z,101137.09
2023-07-20T14:20:53.454Z,101134.47
2023-07-20T14:26:16.442Z,101133.00
2023-07-20T14:31:40.865Z,101130.75
2023-07-20T14:37:05.191Z,101125.03
2023-07-20T14:42:28.393Z,101117.31
2023-07-20T14:47:55.274Z,101117.34
2023-07-20T14:53:19.035Z,101100.41
2023-07-20T14:58:42.293Z,101120.16
2023-07-20T15:04:06.697Z,101116.03
2023-07-20T15:09:29.768Z,101107.88
2023-07-20T15:15:05.525Z,101095.97
2023-07-20T15:20:33.082Z,101095.84
2023-07-20T15:25:56.157Z,101090.16
2023-07-20T15:31:19.163Z,101083.38
2023-07-20T15:36:43.828Z,101084.06
2023-07-20T15:42:08.062Z,101082.59
2023-07-20T15:47:31.446Z,101065.25
2023-07-20T15:52:58.312Z,101067.75
2023-07-20T15:58:21.555Z,101057.78
2023-07-20T16:03:44.486Z,101060.34
2023-07-20T16:09:09.286Z,101051.94
2023-07-20T16:15:06.523Z,101044.69
2023-07-20T16:20:15.147Z,101043.84
2023-07-20T16:25:39.595Z,101037.81
2023-07-20T16:31:02.554Z,101039.50
2023-07-20T16:36:25.679Z,101026.03
2023-07-20T16:47:15.904Z,101024.50
2023-07-20T16:52:38.863Z,101028.88
2023-07-20T16:58:03.154Z,101021.81
2023-07-20T17:03:26.134Z,101017.75
2023-07-20T17:08:49.253Z,101005.44
2023-07-20T17:14:13.977Z,100986.72
2023-07-20T17:19:37.343Z,101005.44
2023-07-20T17:30:29.323Z,101000.56
2023-07-20T17:35:52.228Z,100999.19
2023-07-20T17:41:16.171Z,100996.00
2023-07-20T17:52:07.294Z,100983.00
2023-07-20T17:57:30.253Z,100994.13
2023-07-20T18:02:54.665Z,100996.66
2023-07-20T18:08:17.602Z,100991.44
2023-07-20T18:13:40.718Z,100990.69
2023-07-20T18:19:05.077Z,100985.81
2023-07-20T18:24:28.574Z,100980.91
2023-07-20T18:29:53.006Z,100986.59
2023-07-20T18:35:17.382Z,100993.13
2023-07-20T18:40:41.017Z,100987.22
2023-07-20T18:46:04.869Z,100988.03
2023-07-20T18:51:29.793Z,100980.78
2023-07-20T18:56:53.460Z,100981.94
2023-07-20T19:02:16.615Z,100990.34
2023-07-20T19:07:41.081Z,100989.44
2023-07-20T19:13:04.060Z,100987.06
2023-07-20T19:18:27.759Z,100987.94
2023-07-20T19:23:52.172Z,100972.88
2023-07-20T19:29:15.320Z,100988.03
2023-07-20T19:34:38.277Z,100992.19
2023-07-20T19:40:02.684Z,100996.72
2023-07-20T19:45:26.245Z,101003.41
2023-07-20T19:50:51.265Z,101006.75
2023-07-20T19:56:15.544Z,101011.78
2023-07-20T20:07:08.689Z,101025.25
2023-07-20T20:12:34.606Z,101032.84
2023-07-20T20:18:00.624Z,101031.28
2023-07-20T20:23:23.970Z,101042.91
2023-07-20T20:28:48.490Z,101053.81
2023-07-20T20:34:11.583Z,101048.84
2023-07-20T20:39:34.649Z,101038.50
2023-07-20T20:44:59.135Z,101039.44
2023-07-20T20:50:22.169Z,101038.44
2023-07-20T20:55:45.121Z,101038.66
2023-07-20T21:01:09.590Z,101047.81
2023-07-20T21:06:32.625Z,101037.09
2023-07-20T21:11:56.405Z,101027.75
2023-07-20T21:17:20.637Z,101020.16
2023-07-20T21:22:44.352Z,101014.84
2023-07-20T21:28:07.549Z,101025.50
2023-07-20T21:33:32.291Z,101007.91
2023-07-20T21:38:55.537Z,101019.88
2023-07-20T21:44:24.048Z,101017.50
2023-07-20T21:49:54.263Z,101010.75
2023-07-20T21:55:19.538Z,101008.00
2023-07-20T22:00:42.710Z,101007.81
2023-07-20T22:06:07.541Z,101013.38
2023-07-20T22:11:31.745Z,101004.38
2023-07-20T22:16:56.645Z,101000.03
2023-07-20T22:22:20.996Z,101000.53
2023-07-20T22:27:44.624Z,100999.41
2023-07-20T22:33:07.675Z,100993.25
2023-07-20T22:38:31.932Z,100987.00
2023-07-20T22:43:54.842Z,100979.38
2023-07-20T22:49:17.789Z,100981.84
2023-07-20T22:54:42.144Z,100977.47
2023-07-20T23:00:10.071Z,100976.97
2023-07-20T23:05:32.999Z,100984.00
2023-07-20T23:10:57.692Z,100979.84
2023-07-20T23:16:20.740Z,100981.94
2023-07-20T23:21:44.298Z,100980.66
2023-07-20T23:27:08.688Z,100970.41
2023-07-20T23:32:31.724Z,100971.66
2023-07-20T23:37:56.140Z,100967.59
2023-07-20T23:43:20.450Z,100958.97
2023-07-20T23:48:43.652Z,100952.09
2023-07-20T23:54:06.761Z,100949.28
2023-07-20T23:59:31.035Z,100940.69
